Time;durP1;ratioP1;P1;durP2;ratioP2;P2;SDS_P1;SDS_P2;PMS_P1;PMS_P2;Temp;Humidity;BMP_temperature;BMP_pressure;BME280_temperature;BME280_humidity;BME280_pressure;Samples;Min_cycle;Max_cycle;Signal;HPM_P1;HPM_P2
2022/02/05 00:00:25;;;;;;;4.13;1.90;;;;;;;;;;5010575;28;20064;-79
2022/02/05 00:02:56;;;;;;;4.38;1.73;;;;;;;;;;5011854;28;20144;-76
2022/02/05 00:05:32;;;;;;;3.05;1.65;;;;;;;;;;5011437;28;20041;-76
2022/02/05 00:08:14;;;;;;;;;;;;;;;;;;5009396;28;20054;-76
2022/02/05 00:39:20;;;;;;;0.43;0.30;;;;;;;;;;5146359;27;19940;-76
2022/02/05 00:41:54;;;;;;;1.20;0.50;;;;;;;;;;5142902;27;20066;-76
2022/02/05 00:44:20;;;;;;;0.30;0.30;;;;;;;;;;5145735;27;20039;-75
2022/02/05 00:46:50;;;;;;;1.00;0.50;;;;;;;;;;5143569;27;20074;-77
2022/02/05 00:49:17;;;;;;;2.13;0.85;;;;;;;;;;5148441;27;20499;-77
2022/02/05 00:51:55;;;;;;;1.33;0.68;;;;;;;;;;5143635;27;20067;-78
2022/02/05 00:54:24;;;;;;;2.15;0.75;;;;;;;;;;5146487;27;20084;-77
2022/02/05 00:57:18;;;;;;;1.45;0.68;;;;;;;;;;5141752;27;20087;-75
2022/02/05 00:59:43;;;;;;;1.25;0.68;;;;;;;;;;5144352;27;21375;-78
2022/02/05 01:02:11;;;;;;;0.90;0.63;;;;;;;;;;5147712;27;20165;-78
2022/02/05 01:04:38;;;;;;;2.20;0.85;;;;;;;;;;5144008;27;20130;-77
2022/02/05 01:07:04;;;;;;;5.25;1.05;;;;;;;;;;5148030;27;20073;-79
2022/02/05 01:09:31;;;;;;;1.20;0.57;;;;;;;;;;5145757;27;20085;-76
2022/02/05 01:11:59;;;;;;;1.85;1.00;;;;;;;;;;5141183;27;20047;-77
2022/02/05 01:14:30;;;;;;;2.00;0.63;;;;;;;;;;5140405;27;20050;-78
2022/02/05 01:17:01;;;;;;;0.98;0.63;;;;;;;;;;5138546;27;20051;-76
2022/02/05 01:22:14;;;;;;;0.90;0.50;;;;;;;;;;5145811;27;20074;-75
2022/02/05 01:24:41;;;;;;;1.48;0.90;;;;;;;;;;5129964;27;20100;-75
2022/02/05 01:27:12;;;;;;;1.10;0.50;;;;;;;;;;5132800;27;20388;-76
2022/02/05 01:29:52;;;;;;;0.98;0.40;;;;;;;;;;5131506;27;20548;-77
2022/02/05 01:32:23;;;;;;;0.85;0.40;;;;;;;;;;5129719;27;20775;-78
2022/02/05 01:34:59;;;;;;;1.63;0.50;;;;;;;;;;5128415;27;20040;-78
2022/02/05 01:51:23;;;;;;;0.93;0.60;;;;;;;;;;5126846;27;20510;-76
2022/02/05 01:54:13;;;;;;;1.92;0.50;;;;;;;;;;5123602;27;20392;-77
2022/02/05 01:56:45;;;;;;;1.90;0.60;;;;;;;;;;5122595;27;20065;-77
2022/02/05 01:59:20;;;;;;;1.75;0.57;;;;;;;;;;5127328;27;20039;-77
2022/02/05 02:04:54;;;;;;;1.13;0.50;;;;;;;;;;5125710;27;20120;-77
2022/02/05 02:13:22;;;;;;;2.22;0.75;;;;;;;;;;5122681;27;20055;-77
2022/02/05 02:15:58;;;;;;;0.82;0.60;;;;;;;;;;5130387;27;20088;-78
2022/02/05 02:18:36;;;;;;;0.75;0.50;;;;;;;;;;5128867;27;20043;-77
2022/02/05 02:21:14;;;;;;;0.98;0.63;;;;;;;;;;5126309;27;20118;-77
2022/02/05 02:23:54;;;;;;;0.95;0.60;;;;;;;;;;5128281;27;20507;-77
2022/02/05 02:26:31;;;;;;;1.83;0.88;;;;;;;;;;5119632;27;20039;-77
2022/02/05 02:29:03;;;;;;;1.02;0.60;;;;;;;;;;5132991;27;20058;-77
2022/02/05 02:31:34;;;;;;;0.77;0.57;;;;;;;;;;5128661;27;20043;-77
2022/02/05 02:34:04;;;;;;;1.08;0.93;;;;;;;;;;5131589;27;20049;-77
2022/02/05 02:36:35;;;;;;;2.95;1.25;;;;;;;;;;5125766;27;20078;-77
2022/02/05 02:39:08;;;;;;;2.92;1.00;;;;;;;;;;5132532;27;20042;-77
2022/02/05 02:41:42;;;;;;;1.30;0.90;;;;;;;;;;5131685;27;20088;-77
2022/02/05 02:44:09;;;;;;;1.38;0.98;;;;;;;;;;5127286;27;20039;-77
2022/02/05 02:46:35;;;;;;;1.85;0.85;;;;;;;;;;5130626;27;20043;-77
2022/02/05 02:49:03;;;;;;;1.35;0.88;;;;;;;;;;5131046;27;20447;-78
2022/02/05 02:57:13;;;;;;;1.30;0.80;;;;;;;;;;5125692;27;20049;-77
2022/02/05 02:59:50;;;;;;;1.75;0.95;;;;;;;;;;5122073;27;20039;-78
2022/02/05 03:02:19;;;;;;;2.28;1.30;;;;;;;;;;5130795;27;20135;-77
2022/02/05 03:04:46;;;;;;;2.67;1.00;;;;;;;;;;5128760;27;20090;-78
2022/02/05 03:07:12;;;;;;;2.40;1.00;;;;;;;;;;5126673;27;20077;-77
2022/02/05 03:09:42;;;;;;;2.83;1.10;;;;;;;;;;5129440;27;20075;-77
2022/02/05 03:12:09;;;;;;;3.92;1.25;;;;;;;;;;5122768;27;20104;-78
2022/02/05 03:14:36;;;;;;;3.30;1.35;;;;;;;;;;5122808;27;20120;-77
2022/02/05 03:17:14;;;;;;;1.88;0.98;;;;;;;;;;5130297;27;20043;-77
2022/02/05 03:19:40;;;;;;;1.88;1.00;;;;;;;;;;5121607;27;20047;-77
2022/02/05 03:22:07;;;;;;;2.35;1.55;;;;;;;;;;5121343;27;20043;-78
2022/02/05 03:24:33;;;;;;;2.90;1.08;;;;;;;;;;5130608;27;20075;-78
2022/02/05 03:27:01;;;;;;;2.70;1.40;;;;;;;;;;5126935;27;20096;-78
2022/02/05 03:29:28;;;;;;;3.25;1.50;;;;;;;;;;5131490;27;20111;-77
2022/02/05 03:31:54;;;;;;;3.33;1.50;;;;;;;;;;5126816;27;20779;-78
2022/02/05 03:34:21;;;;;;;2.80;1.23;;;;;;;;;;5131423;27;20078;-78
2022/02/05 03:36:47;;;;;;;2.25;1.40;;;;;;;;;;5128183;27;20699;-79
2022/02/05 03:39:14;;;;;;;3.30;1.40;;;;;;;;;;5128566;27;20043;-76
2022/02/05 03:41:40;;;;;;;1.83;1.10;;;;;;;;;;5125519;27;20152;-78
2022/02/05 03:44:08;;;;;;;2.85;1.58;;;;;;;;;;5129805;27;20440;-77
2022/02/05 03:46:35;;;;;;;2.30;1.13;;;;;;;;;;5131251;27;20101;-77
2022/02/05 03:49:01;;;;;;;2.58;1.58;;;;;;;;;;5120237;27;20078;-77
2022/02/05 03:51:28;;;;;;;3.63;1.65;;;;;;;;;;5121271;27;20127;-79
2022/02/05 03:53:54;;;;;;;2.55;1.40;;;;;;;;;;5130431;27;20070;-78
2022/02/05 03:56:21;;;;;;;2.97;1.58;;;;;;;;;;5126882;27;20039;-77
2022/02/05 03:58:47;;;;;;;3.80;1.55;;;;;;;;;;5118385;27;20067;-76
2022/02/05 04:01:15;;;;;;;2.80;1.50;;;;;;;;;;5128226;27;20130;-77
2022/02/05 04:03:42;;;;;;;2.83;1.52;;;;;;;;;;5129815;27;20070;-77
2022/02/05 04:06:09;;;;;;;2.80;1.33;;;;;;;;;;5124283;27;20048;-78
2022/02/05 04:08:35;;;;;;;3.97;1.55;;;;;;;;;;5122800;27;20067;-77
2022/02/05 04:11:07;;;;;;;3.55;1.60;;;;;;;;;;5127598;28;20111;-77
2022/02/05 04:16:22;;;;;;;3.10;1.42;;;;;;;;;;5131175;28;20164;-77
2022/02/05 04:18:50;;;;;;;4.03;1.63;;;;;;;;;;5124464;28;20449;-78
2022/02/05 04:21:17;;;;;;;4.55;1.58;;;;;;;;;;5128135;28;20126;-77
2022/02/05 04:23:44;;;;;;;2.90;1.40;;;;;;;;;;5125728;28;20137;-77
2022/02/05 04:26:11;;;;;;;2.70;1.58;;;;;;;;;;5128812;28;20073;-77
2022/02/05 04:28:37;;;;;;;3.45;1.60;;;;;;;;;;5124586;28;20134;-78
2022/02/05 04:31:04;;;;;;;3.78;1.42;;;;;;;;;;5127935;28;20075;-77
2022/02/05 04:33:32;;;;;;;3.55;1.80;;;;;;;;;;5127167;28;20071;-77
2022/02/05 04:35:58;;;;;;;3.08;1.83;;;;;;;;;;5130658;28;20137;-79
2022/02/05 04:38:26;;;;;;;4.32;1.55;;;;;;;;;;5131017;28;20499;-78
2022/02/05 04:40:56;;;;;;;3.97;1.63;;;;;;;;;;5123007;28;20075;-77
2022/02/05 04:43:44;;;;;;;3.30;1.98;;;;;;;;;;5129194;28;20129;-77
2022/02/05 04:46:31;;;;;;;3.25;1.67;;;;;;;;;;5126762;28;20465;-77
2022/02/05 04:54:48;;;;;;;5.15;2.00;;;;;;;;;;5125462;28;20035;-78
2022/02/05 04:57:39;;;;;;;4.18;1.75;;;;;;;;;;5129866;28;20042;-77
2022/02/05 05:00:17;;;;;;;2.13;1.40;;;;;;;;;;5132322;27;20510;-79
2022/02/05 05:03:05;;;;;;;3.40;1.52;;;;;;;;;;5133856;27;20043;-77
2022/02/05 05:06:02;;;;;;;2.70;1.42;;;;;;;;;;5129328;27;20043;-77
2022/02/05 05:08:38;;;;;;;4.20;1.50;;;;;;;;;;5128821;27;20032;-76
2022/02/05 05:11:35;;;;;;;2.90;1.70;;;;;;;;;;5132364;27;20065;-77
2022/02/05 05:19:33;;;;;;;2.90;1.38;;;;;;;;;;5129925;27;20119;-79
2022/02/05 05:22:03;;;;;;;3.70;1.50;;;;;;;;;;5123791;27;20048;-78
2022/02/05 05:24:30;;;;;;;4.10;1.35;;;;;;;;;;5123007;27;20079;-77
2022/02/05 05:26:57;;;;;;;2.05;1.10;;;;;;;;;;5124297;27;20155;-77
2022/02/05 05:29:23;;;;;;;2.63;1.40;;;;;;;;;;5128112;27;20067;-77
2022/02/05 05:31:50;;;;;;;3.35;1.75;;;;;;;;;;5127340;27;20126;-77
2022/02/05 05:34:16;;;;;;;1.83;1.02;;;;;;;;;;5131314;27;20134;-78
2022/02/05 05:36:43;;;;;;;2.25;1.20;;;;;;;;;;5127435;27;20820;-77
2022/02/05 05:39:13;;;;;;;5.85;1.38;;;;;;;;;;5133107;27;20090;-77
2022/02/05 05:41:39;;;;;;;2.15;1.00;;;;;;;;;;5131316;27;20507;-77
2022/02/05 05:47:13;;;;;;;2.75;1.30;;;;;;;;;;5127363;27;20415;-77
2022/02/05 05:49:56;;;;;;;3.20;1.52;;;;;;;;;;5128890;27;20654;-78
2022/02/05 05:52:24;;;;;;;2.95;1.23;;;;;;;;;;5134638;27;20084;-77
2022/02/05 05:54:52;;;;;;;3.40;1.10;;;;;;;;;;5130671;27;20135;-77
2022/02/05 05:57:18;;;;;;;1.45;0.75;;;;;;;;;;5128004;27;20170;-77
2022/02/05 05:59:45;;;;;;;5.55;1.17;;;;;;;;;;5129936;27;20540;-77
2022/02/05 06:02:12;;;;;;;1.70;0.98;;;;;;;;;;5134042;27;20067;-77
2022/02/05 06:04:39;;;;;;;1.50;0.90;;;;;;;;;;5128299;27;20081;-77
2022/02/05 06:07:05;;;;;;;4.38;1.00;;;;;;;;;;5130704;27;20074;-77
2022/02/05 06:09:34;;;;;;;5.10;1.38;;;;;;;;;;5130581;27;20074;-77
2022/02/05 06:12:02;;;;;;;3.38;1.17;;;;;;;;;;5125278;27;20395;-77
2022/02/05 06:14:29;;;;;;;2.25;1.10;;;;;;;;;;5130069;27;20784;-77
2022/02/05 06:17:00;;;;;;;3.83;1.00;;;;;;;;;;5123521;27;20127;-77
2022/02/05 06:19:27;;;;;;;3.63;1.08;;;;;;;;;;5130270;27;20568;-77
2022/02/05 06:21:54;;;;;;;3.35;1.10;;;;;;;;;;5133120;27;20089;-77
2022/02/05 06:24:20;;;;;;;2.75;1.30;;;;;;;;;;5133130;27;20074;-77
2022/02/05 06:26:47;;;;;;;3.20;1.25;;;;;;;;;;5128113;27;20043;-77
2022/02/05 06:29:15;;;;;;;5.53;2.17;;;;;;;;;;5132031;27;20126;-76
2022/02/05 06:31:41;;;;;;;4.25;1.35;;;;;;;;;;5131178;27;20093;-77
2022/02/05 06:34:08;;;;;;;2.47;1.33;;;;;;;;;;5128062;27;20494;-78
2022/02/05 06:36:34;;;;;;;2.72;1.40;;;;;;;;;;5130047;27;20143;-77
2022/02/05 06:39:01;;;;;;;3.60;1.40;;;;;;;;;;5130850;27;20039;-77
2022/02/05 06:41:27;;;;;;;2.90;1.40;;;;;;;;;;5133049;27;20074;-77
2022/02/05 06:43:54;;;;;;;2.63;1.30;;;;;;;;;;5132279;27;20550;-78
2022/02/05 06:46:22;;;;;;;2.88;1.25;;;;;;;;;;5131689;27;20071;-77
2022/02/05 06:48:48;;;;;;;2.38;1.27;;;;;;;;;;5131565;27;20079;-77
2022/02/05 06:51:15;;;;;;;4.25;1.40;;;;;;;;;;5124753;27;20074;-78
2022/02/05 06:53:42;;;;;;;3.25;1.42;;;;;;;;;;5131423;27;20142;-77
2022/02/05 06:56:08;;;;;;;2.08;1.02;;;;;;;;;;5128481;27;20131;-77
2022/02/05 06:58:35;;;;;;;3.10;1.58;;;;;;;;;;5127347;27;20078;-77
2022/02/05 07:01:01;;;;;;;3.15;1.42;;;;;;;;;;5129210;27;20043;-77
2022/02/05 07:03:29;;;;;;;2.85;1.30;;;;;;;;;;5130517;27;20082;-77
2022/02/05 07:05:56;;;;;;;6.22;1.70;;;;;;;;;;5127722;27;20096;-77
2022/02/05 07:08:23;;;;;;;3.05;1.25;;;;;;;;;;5130898;27;20535;-76
2022/02/05 07:10:51;;;;;;;4.00;1.90;;;;;;;;;;5124767;27;20066;-77
2022/02/05 07:13:19;;;;;;;4.35;1.42;;;;;;;;;;5130035;27;20043;-77
2022/02/05 07:15:53;;;;;;;4.28;1.63;;;;;;;;;;5132239;27;20127;-76
2022/02/05 07:18:28;;;;;;;3.75;2.17;;;;;;;;;;5126594;27;20074;-77
2022/02/05 07:21:01;;;;;;;3.85;1.98;;;;;;;;;;5129949;27;20039;-76
2022/02/05 07:29:14;;;;;;;6.45;1.70;;;;;;;;;;5132090;27;20509;-78
2022/02/05 07:31:43;;;;;;;5.05;1.80;;;;;;;;;;5130255;27;20039;-76
2022/02/05 07:34:09;;;;;;;6.70;2.03;;;;;;;;;;5125654;27;20071;-78
2022/02/05 07:36:37;;;;;;;3.10;1.60;;;;;;;;;;5128055;27;20482;-77
2022/02/05 07:39:06;;;;;;;3.38;1.55;;;;;;;;;;5120543;27;20087;-77
2022/02/05 07:41:33;;;;;;;7.60;1.52;;;;;;;;;;5128135;27;20051;-77
2022/02/05 07:43:59;;;;;;;5.07;1.80;;;;;;;;;;5123718;27;20043;-77
2022/02/05 07:46:27;;;;;;;4.60;1.50;;;;;;;;;;5129162;27;20134;-77
2022/02/05 07:48:53;;;;;;;4.85;1.50;;;;;;;;;;5128844;27;20084;-77
2022/02/05 07:51:20;;;;;;;5.25;1.77;;;;;;;;;;5125071;27;20074;-77
2022/02/05 07:53:48;;;;;;;2.90;1.67;;;;;;;;;;5129255;27;20138;-78
2022/02/05 07:56:15;;;;;;;3.90;1.67;;;;;;;;;;5129620;27;20070;-77
2022/02/05 07:58:41;;;;;;;4.70;2.00;;;;;;;;;;5128941;27;20499;-77
2022/02/05 08:01:08;;;;;;;4.60;2.13;;;;;;;;;;5126689;27;20444;-77
2022/02/05 08:03:34;;;;;;;4.03;1.60;;;;;;;;;;5131056;27;20074;-77
2022/02/05 08:06:03;;;;;;;5.55;1.92;;;;;;;;;;5128734;27;20046;-77
2022/02/05 08:08:33;;;;;;;3.83;1.55;;;;;;;;;;5131315;27;20092;-75
2022/02/05 08:11:04;;;;;;;2.60;1.42;;;;;;;;;;5130758;28;20092;-75
2022/02/05 08:13:33;;;;;;;6.55;3.03;;;;;;;;;;5123436;28;20437;-75
2022/02/05 08:16:11;;;;;;;3.65;2.08;;;;;;;;;;5128608;28;20046;-76
2022/02/05 08:18:39;;;;;;;10.00;3.75;;;;;;;;;;5130311;28;20051;-78
2022/02/05 08:21:06;;;;;;;3.42;1.70;;;;;;;;;;5131336;28;20066;-76
2022/02/05 08:23:32;;;;;;;6.25;2.03;;;;;;;;;;5129830;28;20043;-77
2022/02/05 08:26:00;;;;;;;3.33;1.55;;;;;;;;;;5127961;28;20074;-79
2022/02/05 08:28:29;;;;;;;3.92;2.03;;;;;;;;;;5128508;28;20078;-76
2022/02/05 08:30:55;;;;;;;4.15;2.00;;;;;;;;;;5122538;28;20049;-75
2022/02/05 08:33:22;;;;;;;2.20;1.27;;;;;;;;;;5123170;27;20085;-75
2022/02/05 08:35:50;;;;;;;4.82;1.58;;;;;;;;;;5134957;27;20085;-75
2022/02/05 08:38:17;;;;;;;5.30;1.67;;;;;;;;;;5122434;27;20071;-75
2022/02/05 08:40:43;;;;;;;3.83;1.65;;;;;;;;;;5128900;27;20126;-75
2022/02/05 08:43:11;;;;;;;5.95;1.55;;;;;;;;;;5132849;27;20114;-75
2022/02/05 08:45:38;;;;;;;4.57;1.67;;;;;;;;;;5127482;27;20047;-75
2022/02/05 08:48:05;;;;;;;4.43;1.52;;;;;;;;;;5133894;27;20035;-77
2022/02/05 08:50:32;;;;;;;3.58;1.48;;;;;;;;;;5134305;27;20077;-77
2022/02/05 08:52:59;;;;;;;2.65;1.70;;;;;;;;;;5133200;27;20072;-78
2022/02/05 08:55:28;;;;;;;3.75;1.73;;;;;;;;;;5132133;27;20135;-76
2022/02/05 08:57:56;;;;;;;2.95;1.60;;;;;;;;;;5128711;27;20048;-76
2022/02/05 09:00:26;;;;;;;5.85;1.88;;;;;;;;;;5129185;27;20122;-78
2022/02/05 09:02:55;;;;;;;4.93;1.80;;;;;;;;;;5128650;27;20120;-76
2022/02/05 09:05:33;;;;;;;5.45;1.40;;;;;;;;;;5129695;27;20053;-81
2022/02/05 09:08:06;;;;;;;3.15;1.33;;;;;;;;;;5136502;27;20051;-79
2022/02/05 09:10:38;;;;;;;7.47;2.35;;;;;;;;;;5128420;27;20047;-76
2022/02/05 09:13:13;;;;;;;2.10;1.10;;;;;;;;;;5133624;27;20611;-78
2022/02/05 09:15:41;;;;;;;5.10;1.30;;;;;;;;;;5131691;27;20039;-77
2022/02/05 09:18:07;;;;;;;5.88;1.50;;;;;;;;;;5132137;27;20062;-78
2022/02/05 09:20:34;;;;;;;8.18;1.40;;;;;;;;;;5136385;27;20071;-80
2022/02/05 09:23:01;;;;;;;6.75;1.20;;;;;;;;;;5138163;27;20043;-79
2022/02/05 09:25:29;;;;;;;3.90;1.85;;;;;;;;;;5136704;27;20070;-80
2022/02/05 09:27:56;;;;;;;1.95;1.10;;;;;;;;;;5135283;27;20040;-77
2022/02/05 09:30:31;;;;;;;3.50;1.23;;;;;;;;;;5133482;27;20441;-81
2022/02/05 09:32:59;;;;;;;4.30;1.70;;;;;;;;;;5137234;27;20161;-81
2022/02/05 09:35:26;;;;;;;5.75;2.30;;;;;;;;;;5138007;27;20077;-81
2022/02/05 09:37:52;;;;;;;5.80;1.80;;;;;;;;;;5131330;27;20078;-81
2022/02/05 09:40:19;;;;;;;3.88;1.80;;;;;;;;;;5122451;27;20078;-79
2022/02/05 09:42:46;;;;;;;7.22;1.75;;;;;;;;;;5122316;27;20071;-78
2022/02/05 09:45:13;;;;;;;3.17;1.23;;;;;;;;;;5132677;27;20078;-77
2022/02/05 09:47:39;;;;;;;3.40;0.90;;;;;;;;;;5128210;27;20047;-77
2022/02/05 09:50:08;;;;;;;3.35;1.15;;;;;;;;;;5123607;27;20077;-77
2022/02/05 09:52:35;;;;;;;2.22;1.15;;;;;;;;;;5132910;27;20086;-78
2022/02/05 09:55:01;;;;;;;4.63;1.08;;;;;;;;;;5135361;27;20039;-76
2022/02/05 09:57:28;;;;;;;5.38;1.13;;;;;;;;;;5131304;27;20039;-77
2022/02/05 09:59:58;;;;;;;4.55;1.25;;;;;;;;;;5137135;27;20135;-77
2022/02/05 10:02:29;;;;;;;3.92;1.10;;;;;;;;;;5125970;27;20071;-76
2022/02/05 10:04:57;;;;;;;4.93;1.10;;;;;;;;;;5134437;27;20054;-75
2022/02/05 10:07:26;;;;;;;2.67;1.73;;;;;;;;;;5126464;27;20043;-75
2022/02/05 10:09:57;;;;;;;6.85;1.27;;;;;;;;;;5128214;27;20095;-75
2022/02/05 10:12:24;;;;;;;3.17;1.17;;;;;;;;;;5125463;27;20075;-75
2022/02/05 10:14:51;;;;;;;4.05;0.82;;;;;;;;;;5132999;27;20094;-75
2022/02/05 10:17:19;;;;;;;3.53;1.17;;;;;;;;;;5128189;27;20143;-75
2022/02/05 10:19:47;;;;;;;3.22;1.15;;;;;;;;;;5125818;27;20385;-75
2022/02/05 10:22:14;;;;;;;4.03;1.17;;;;;;;;;;5130967;27;20070;-76
2022/02/05 10:24:49;;;;;;;4.65;1.30;;;;;;;;;;5131234;27;20103;-76
2022/02/05 10:27:26;;;;;;;2.83;0.93;;;;;;;;;;5133058;27;20074;-75
2022/02/05 10:30:05;;;;;;;4.72;1.48;;;;;;;;;;5131707;27;20126;-76
2022/02/05 10:32:32;;;;;;;4.45;1.67;;;;;;;;;;5132156;27;20074;-77
2022/02/05 10:35:07;;;;;;;2.63;1.15;;;;;;;;;;5131490;27;20062;-75
2022/02/05 10:37:42;;;;;;;4.22;1.20;;;;;;;;;;5131103;27;20096;-77
2022/02/05 10:40:14;;;;;;;2.03;0.80;;;;;;;;;;5125861;27;20054;-75
2022/02/05 10:43:01;;;;;;;4.55;1.20;;;;;;;;;;5122514;27;20297;-76
2022/02/05 10:45:31;;;;;;;4.25;1.15;;;;;;;;;;5132417;27;20039;-76
2022/02/05 10:47:59;;;;;;;6.47;1.33;;;;;;;;;;5118632;27;20129;-76
2022/02/05 10:50:28;;;;;;;4.10;1.35;;;;;;;;;;5132484;27;20067;-75
2022/02/05 10:53:00;;;;;;;4.00;1.08;;;;;;;;;;5130573;27;20470;-77
2022/02/05 10:55:44;;;;;;;2.92;0.98;;;;;;;;;;5129106;27;20035;-76
2022/02/05 10:58:29;;;;;;;2.65;1.30;;;;;;;;;;5127630;27;20044;-76
2022/02/05 11:06:29;;;;;;;7.03;1.50;;;;;;;;;;5128325;27;20043;-77
2022/02/05 11:08:55;;;;;;;8.00;1.33;;;;;;;;;;5130516;27;20043;-76
2022/02/05 11:19:34;;;;;;;2.90;0.90;;;;;;;;;;5128518;27;20054;-76
2022/02/05 11:22:01;;;;;;;7.68;1.50;;;;;;;;;;5127349;27;20127;-75
2022/02/05 11:24:30;;;;;;;3.15;1.00;;;;;;;;;;5127028;27;20089;-76
2022/02/05 11:26:58;;;;;;;6.40;1.40;;;;;;;;;;5131221;27;20123;-77
2022/02/05 11:29:30;;;;;;;2.78;0.95;;;;;;;;;;5125947;27;20122;-77
2022/02/05 11:32:25;;;;;;;7.63;1.92;;;;;;;;;;5126989;27;20035;-76
2022/02/05 11:35:04;;;;;;;1.75;0.80;;;;;;;;;;5124711;27;20046;-77
2022/02/05 11:37:31;;;;;;;4.55;1.48;;;;;;;;;;5128595;27;20046;-78
2022/02/05 11:39:58;;;;;;;2.83;0.90;;;;;;;;;;5126178;27;21508;-76
2022/02/05 11:42:28;;;;;;;5.30;1.10;;;;;;;;;;5127783;27;20458;-76
2022/02/05 11:44:56;;;;;;;4.90;1.30;;;;;;;;;;5128373;27;20083;-77
2022/02/05 11:47:28;;;;;;;9.77;1.60;;;;;;;;;;5126211;27;20043;-77
2022/02/05 11:50:18;;;;;;;4.78;1.48;;;;;;;;;;5131064;27;20054;-77
2022/02/05 11:53:02;;;;;;;3.13;1.30;;;;;;;;;;5126409;27;20550;-78
2022/02/05 11:55:43;;;;;;;6.10;1.30;;;;;;;;;;5117591;27;20127;-78
2022/02/05 11:58:13;;;;;;;3.83;1.02;;;;;;;;;;5121335;27;20044;-78
2022/02/05 12:00:41;;;;;;;3.83;0.85;;;;;;;;;;5121414;27;20083;-77
2022/02/05 12:03:34;;;;;;;6.78;1.38;;;;;;;;;;5129056;27;20479;-77
2022/02/05 12:06:06;;;;;;;3.58;1.63;;;;;;;;;;5120413;27;20051;-77
2022/02/05 12:08:36;;;;;;;2.08;0.82;;;;;;;;;;5122564;27;20137;-76
2022/02/05 12:11:31;;;;;;;5.30;1.27;;;;;;;;;;5130758;27;20046;-77
2022/02/05 12:14:15;;;;;;;2.15;1.00;;;;;;;;;;5122031;28;20043;-78
2022/02/05 12:17:08;;;;;;;6.43;1.30;;;;;;;;;;5125790;28;20089;-76
2022/02/05 12:20:03;;;;;;;5.30;1.00;;;;;;;;;;5128995;28;20132;-77
2022/02/05 12:23:07;;;;;;;6.55;1.00;;;;;;;;;;5125329;28;20071;-78
2022/02/05 12:25:34;;;;;;;5.03;1.45;;;;;;;;;;5121270;28;20051;-76
2022/02/05 12:28:31;;;;;;;2.83;1.20;;;;;;;;;;5125084;28;20035;-78
2022/02/05 12:31:00;;;;;;;2.47;1.20;;;;;;;;;;5129356;28;20078;-77
2022/02/05 12:33:27;;;;;;;4.38;1.13;;;;;;;;;;5119167;28;20097;-77
2022/02/05 12:35:55;;;;;;;4.88;0.90;;;;;;;;;;5124503;28;20598;-76
2022/02/05 12:38:22;;;;;;;3.92;1.08;;;;;;;;;;5119076;28;20039;-76
2022/02/05 12:40:51;;;;;;;1.88;1.00;;;;;;;;;;5124701;28;20073;-77
2022/02/05 12:43:19;;;;;;;3.55;1.58;;;;;;;;;;5129888;28;20047;-76
2022/02/05 12:45:50;;;;;;;5.05;1.80;;;;;;;;;;5125038;28;20122;-77
2022/02/05 12:48:26;;;;;;;8.20;2.03;;;;;;;;;;5127655;28;20124;-77
2022/02/05 12:50:52;;;;;;;5.80;1.48;;;;;;;;;;5128138;28;20058;-76
2022/02/05 12:53:20;;;;;;;5.15;1.38;;;;;;;;;;5127315;28;20097;-78
2022/02/05 12:55:47;;;;;;;5.65;1.38;;;;;;;;;;5122998;28;20043;-76
2022/02/05 12:58:18;;;;;;;4.18;0.93;;;;;;;;;;5123411;28;20052;-76
2022/02/05 13:00:44;;;;;;;3.65;0.90;;;;;;;;;;5125307;28;20044;-76
2022/02/05 13:03:27;;;;;;;3.65;1.02;;;;;;;;;;5123773;28;20071;-77
2022/02/05 13:05:54;;;;;;;2.72;1.02;;;;;;;;;;5122061;28;20487;-77
2022/02/05 13:08:21;;;;;;;2.55;1.00;;;;;;;;;;5125773;28;20131;-77
2022/02/05 13:10:49;;;;;;;7.18;1.33;;;;;;;;;;5127445;28;20039;-78
2022/02/05 13:13:15;;;;;;;4.03;0.95;;;;;;;;;;5125515;28;20123;-78
2022/02/05 13:15:42;;;;;;;2.85;0.93;;;;;;;;;;5127800;28;20039;-77
2022/02/05 13:18:18;;;;;;;4.43;1.10;;;;;;;;;;5123398;28;20490;-76
2022/02/05 13:26:18;;;;;;;1.65;0.85;;;;;;;;;;5131229;27;20066;-76
2022/02/05 13:28:51;;;;;;;5.78;1.42;;;;;;;;;;5127942;27;20042;-77
2022/02/05 13:34:11;;;;;;;3.88;1.10;;;;;;;;;;5132529;27;20046;-77
2022/02/05 13:36:43;;;;;;;2.25;0.90;;;;;;;;;;5132096;27;20043;-76
2022/02/05 13:39:19;;;;;;;5.38;1.10;;;;;;;;;;5131526;27;20039;-77
2022/02/05 13:41:52;;;;;;;3.60;1.02;;;;;;;;;;5131261;27;20473;-76
2022/02/05 13:44:22;;;;;;;5.35;1.20;;;;;;;;;;5119912;27;20047;-76
2022/02/05 13:47:03;;;;;;;6.43;1.23;;;;;;;;;;5126035;27;20723;-76
2022/02/05 13:49:29;;;;;;;5.57;1.30;;;;;;;;;;5131698;27;20075;-75
2022/02/05 13:52:05;;;;;;;4.97;1.15;;;;;;;;;;5131419;27;20079;-76
2022/02/05 13:54:35;;;;;;;4.88;1.42;;;;;;;;;;5120966;27;20126;-76
2022/02/05 13:57:03;;;;;;;4.45;1.20;;;;;;;;;;5128253;27;20082;-76
2022/02/05 13:59:30;;;;;;;3.80;0.98;;;;;;;;;;5127782;27;20168;-76
2022/02/05 14:01:56;;;;;;;2.95;0.80;;;;;;;;;;5130437;27;20407;-77
2022/02/05 14:04:24;;;;;;;3.65;1.38;;;;;;;;;;5126063;27;20067;-81
2022/02/05 14:06:55;;;;;;;3.42;1.40;;;;;;;;;;5125182;27;20838;-76
2022/02/05 14:09:25;;;;;;;6.85;1.20;;;;;;;;;;5125753;27;20082;-76
2022/02/05 14:11:52;;;;;;;3.95;1.38;;;;;;;;;;5130500;27;20043;-77
2022/02/05 14:14:27;;;;;;;3.35;1.23;;;;;;;;;;5126179;27;20062;-76
2022/02/05 14:16:54;;;;;;;2.83;1.23;;;;;;;;;;5123172;27;20047;-76
2022/02/05 14:19:21;;;;;;;8.02;1.60;;;;;;;;;;5130419;27;20093;-76
2022/02/05 14:21:49;;;;;;;4.40;0.90;;;;;;;;;;5130630;27;20047;-76
2022/02/05 14:24:17;;;;;;;6.95;1.45;;;;;;;;;;5129135;27;20036;-76
2022/02/05 14:26:54;;;;;;;3.08;1.70;;;;;;;;;;5131976;27;20050;-76
2022/02/05 14:29:20;;;;;;;2.58;0.90;;;;;;;;;;5132455;27;20411;-76
2022/02/05 14:31:50;;;;;;;4.32;1.05;;;;;;;;;;5129718;27;20047;-77
2022/02/05 14:34:21;;;;;;;5.00;1.65;;;;;;;;;;5124796;27;20039;-76
2022/02/05 14:42:20;;;;;;;4.80;1.30;;;;;;;;;;5125909;27;20046;-79
2022/02/05 14:44:47;;;;;;;6.22;1.00;;;;;;;;;;5124617;27;20552;-76
2022/02/05 14:47:14;;;;;;;3.72;1.10;;;;;;;;;;5125597;27;20068;-78
2022/02/05 14:49:41;;;;;;;2.60;1.13;;;;;;;;;;5130855;27;20039;-77
2022/02/05 14:52:10;;;;;;;4.63;1.30;;;;;;;;;;5129432;27;20071;-77
2022/02/05 14:54:37;;;;;;;5.32;1.10;;;;;;;;;;5119886;27;20055;-76
2022/02/05 14:57:04;;;;;;;5.13;1.23;;;;;;;;;;5126753;27;20088;-77
2022/02/05 14:59:32;;;;;;;3.20;1.15;;;;;;;;;;5123947;27;20118;-77
2022/02/05 15:01:59;;;;;;;3.78;1.00;;;;;;;;;;5115744;27;20126;-77
2022/02/05 15:04:26;;;;;;;4.97;1.30;;;;;;;;;;5128665;27;20071;-76
2022/02/05 15:06:52;;;;;;;4.07;1.63;;;;;;;;;;5125171;27;20047;-76
2022/02/05 15:09:19;;;;;;;1.80;0.95;;;;;;;;;;5120522;27;20081;-77
2022/02/05 15:11:46;;;;;;;3.80;1.38;;;;;;;;;;5119861;27;20047;-77
2022/02/05 15:14:12;;;;;;;4.43;1.20;;;;;;;;;;5122384;27;20129;-76
2022/02/05 15:16:40;;;;;;;2.72;1.00;;;;;;;;;;5126325;27;20077;-76
2022/02/05 15:19:07;;;;;;;4.93;1.20;;;;;;;;;;5123245;27;20071;-77
2022/02/05 15:21:35;;;;;;;3.42;1.20;;;;;;;;;;5126303;27;20075;-77
2022/02/05 15:24:02;;;;;;;4.60;1.00;;;;;;;;;;5126851;27;20079;-76
2022/02/05 15:26:32;;;;;;;2.58;1.17;;;;;;;;;;5127422;27;20172;-80
2022/02/05 15:28:59;;;;;;;2.55;1.13;;;;;;;;;;5124569;27;20503;-82
2022/02/05 15:31:25;;;;;;;3.10;1.30;;;;;;;;;;5120443;27;20082;-76
2022/02/05 15:33:57;;;;;;;4.88;1.92;;;;;;;;;;5123692;27;20039;-80
2022/02/05 15:36:28;;;;;;;4.10;1.92;;;;;;;;;;5129691;27;20047;-77
2022/02/05 15:39:10;;;;;;;4.15;1.75;;;;;;;;;;5122218;27;20497;-76
2022/02/05 15:44:21;;;;;;;5.18;1.42;;;;;;;;;;5128184;27;20112;-75
2022/02/05 15:46:48;;;;;;;5.07;1.55;;;;;;;;;;5126081;27;20404;-75
2022/02/05 15:49:16;;;;;;;3.28;1.45;;;;;;;;;;5122415;27;20139;-76
2022/02/05 15:51:43;;;;;;;3.85;2.25;;;;;;;;;;5126203;27;20146;-77
2022/02/05 15:54:12;;;;;;;9.13;4.15;;;;;;;;;;5130627;27;20054;-76
2022/02/05 15:56:43;;;;;;;9.35;2.47;;;;;;;;;;5123270;27;20587;-76
2022/02/05 15:59:13;;;;;;;5.35;2.85;;;;;;;;;;5123187;27;20045;-78
2022/02/05 16:01:40;;;;;;;7.10;2.60;;;;;;;;;;5123098;27;20123;-76
2022/02/05 16:04:07;;;;;;;5.60;2.85;;;;;;;;;;5121608;27;20487;-76
2022/02/05 16:06:35;;;;;;;4.32;2.25;;;;;;;;;;5127867;27;22577;-77
2022/02/05 16:09:03;;;;;;;4.65;2.15;;;;;;;;;;5129890;28;20429;-78
2022/02/05 16:11:30;;;;;;;5.97;2.88;;;;;;;;;;5126808;27;20071;-77
2022/02/05 16:13:56;;;;;;;6.72;2.95;;;;;;;;;;5120018;27;20086;-76
2022/02/05 16:16:23;;;;;;;7.30;3.05;;;;;;;;;;5126033;28;20078;-76
2022/02/05 16:18:49;;;;;;;9.57;3.33;;;;;;;;;;5126845;28;20040;-76
2022/02/05 16:21:18;;;;;;;8.55;3.22;;;;;;;;;;5124436;28;20122;-76
2022/02/05 16:23:52;;;;;;;8.82;2.75;;;;;;;;;;5125673;28;20055;-82
2022/02/05 16:26:19;;;;;;;8.27;3.58;;;;;;;;;;5130494;28;20047;-76
2022/02/05 16:28:45;;;;;;;11.70;3.70;;;;;;;;;;5131498;28;20051;-77
2022/02/05 16:31:13;;;;;;;8.10;2.95;;;;;;;;;;5119961;28;20102;-77
2022/02/05 16:33:41;;;;;;;7.38;2.83;;;;;;;;;;5125794;28;20043;-77
2022/02/05 16:36:10;;;;;;;7.45;2.65;;;;;;;;;;5118784;28;20048;-78
2022/02/05 16:38:37;;;;;;;7.32;3.13;;;;;;;;;;5120045;28;20475;-77
2022/02/05 16:41:06;;;;;;;14.27;5.88;;;;;;;;;;5124554;28;20070;-76
2022/02/05 16:43:34;;;;;;;24.02;10.25;;;;;;;;;;5121737;28;20047;-77
2022/02/05 16:46:01;;;;;;;16.58;8.65;;;;;;;;;;5115926;28;20100;-76
2022/02/05 16:48:29;;;;;;;32.97;17.50;;;;;;;;;;5129718;28;20067;-77
2022/02/05 16:50:56;;;;;;;27.35;14.05;;;;;;;;;;5128099;28;20047;-76
2022/02/05 16:53:22;;;;;;;20.05;10.93;;;;;;;;;;5129529;27;20114;-78